Lobo

Go HERE for most recent data if this page is not up to date.

Jump to table bottom
Date/Time Temp deg F RH % 24 Hr Snow (in) Snow Depth (in) H2O (in)
06/16 16:00 46.4 26 "NAN" 1.3 0.00
06/16 15:00 45.0 24 "NAN" 1.9 0.00
06/16 14:00 43.9 17 "NAN" 1.4 0.00
06/16 13:00 41.5 23 "NAN" 1.6 0.00
06/16 12:00 39.3 22 "NAN" 1.4 0.00
06/16 11:00 36.2 27 "NAN" 1.3 0.00
06/16 10:00 33.8 28 "NAN" 1.3 0.00
06/16 09:00 30.8 37 "NAN" 1.1 0.00
06/16 08:00 28.3 46 "NAN" 1.2 0.00
06/16 07:00 27.0 59 "NAN" 1.1 0.00
06/16 06:00 26.7 63 "NAN" 1.0 0.00
06/16 05:00 27.7 64 "NAN" 0.9 0.00
06/16 04:00 28.7 54 "NAN" 1.1 0.00
06/16 03:00 29.3 65 "NAN" 0.8 0.00
06/16 02:00 30.2 75 "NAN" 0.8 0.00
06/16 01:00 31.7 72 "NAN" 0.7 0.00
06/16 00:00 33.6 74 "NAN" 0.9 0.00
06/15 23:00 36.5 82 "NAN" 1.7 0.00
06/15 22:00 38.8 69 "NAN" 0.9 0.00
06/15 21:00 43.3 63 "NAN" 0.8 0.00
06/15 20:00 46.0 52 "NAN" 0.9 0.00
06/15 19:00 47.1 46 "NAN" 0.9 0.00
06/15 18:00 48.5 42 "NAN" 0.8 0.00
06/15 17:00 51.0 40 "NAN" 0.7 0.00
06/15 16:00 52.1 29 "NAN" 0.9 0.00
06/15 15:00 52.9 35 "NAN" 1.0 0.00
06/15 14:00 54.6 39 "NAN" 1.2 0.00
06/15 13:00 54.6 36 "NAN" 1.1 0.00
06/15 12:00 53.8 48 "NAN" 1.1 0.00
06/15 11:00 52.0 51 "NAN" 1.0 0.00
06/15 10:00 48.5 62 "NAN" 0.9 0.00
06/15 09:00 44.6 66 "NAN" 0.9 0.00
06/15 08:00 42.9 73 "NAN" 0.9 0.00
06/15 07:00 42.1 76 "NAN" 0.8 0.00
06/15 06:00 43.8 79 "NAN" 0.8 0.00
06/15 05:00 45.9 69 "NAN" 0.8 0.00
06/15 04:00 47.5 61 "NAN" 0.9 0.00
06/15 03:00 46.7 65 "NAN" 0.8 0.00
06/15 02:00 47.9 66 "NAN" 0.7 0.00
06/15 01:00 49.4 61 "NAN" 0.7 0.00
06/15 00:00 50.4 56 "NAN" 0.8 0.00
.